GLD1154 SBSP-SBCF
Flight info
| Callsign | GLD1154 |
|---|---|
| Flight time | 0h 52m |
| Altitude | 33000 |
| Route | NUXEL UZ23 KIBAP |
| Aircraft | B738/M-SDFGIRY/S |
Departure
| Time | 2026-05-05 00:08 |
|---|---|
| Airport | Congonhas–Deputado Freitas Nobre Airport (SBSP) |
Arrival
| Time | 2026-05-05 01:00 |
|---|---|
| Airport | Tancredo Neves International Airport (SBCF) |
| Time | Latitude | Longitude | Altitude | Speed | Heading |
|---|---|---|---|---|---|
| 2026-05-04 23:54 | -23.62657 | -46.65863 | 2600 ft | 0 kts | 237° |
| 2026-05-05 00:01 | -23.62656 | -46.65862 | 2600 ft | 2 kts | 237° |
| 2026-05-05 00:01 | -23.62647 | -46.65847 | 2573 ft | 2 kts | 238° |
| 2026-05-05 00:01 | -23.62638 | -46.65832 | 2600 ft | 2 kts | 240° |
| 2026-05-05 00:01 | -23.62641 | -46.65817 | 2600 ft | 2 kts | 332° |
| 2026-05-05 00:02 | -23.62654 | -46.65810 | 2600 ft | 1 kts | 329° |
| 2026-05-05 00:02 | -23.62656 | -46.65809 | 2600 ft | 0 kts | 328° |
| 2026-05-05 00:03 | -23.62649 | -46.65809 | 2600 ft | 3 kts | 358° |
| 2026-05-05 00:04 | -23.62600 | -46.65808 | 2601 ft | 10 kts | 353° |
| 2026-05-05 00:04 | -23.62540 | -46.65845 | 2601 ft | 10 kts | 326° |
| 2026-05-05 00:04 | -23.62484 | -46.65883 | 2600 ft | 10 kts | 328° |
| 2026-05-05 00:04 | -23.62428 | -46.65921 | 2600 ft | 9 kts | 328° |
| 2026-05-05 00:05 | -23.62373 | -46.65958 | 2599 ft | 9 kts | 328° |
| 2026-05-05 00:05 | -23.62320 | -46.65994 | 2599 ft | 9 kts | 328° |
| 2026-05-05 00:05 | -23.62269 | -46.66030 | 2599 ft | 9 kts | 328° |
| 2026-05-05 00:05 | -23.62216 | -46.66059 | 2590 ft | 8 kts | 328° |
| 2026-05-05 00:06 | -23.62167 | -46.66092 | 2598 ft | 8 kts | 327° |
| 2026-05-05 00:06 | -23.62120 | -46.66126 | 2593 ft | 8 kts | 327° |
| 2026-05-05 00:06 | -23.62068 | -46.66134 | 2596 ft | 8 kts | 22° |
| 2026-05-05 00:06 | -23.62049 | -46.66081 | 2595 ft | 9 kts | 115° |
| 2026-05-05 00:07 | -23.62066 | -46.66063 | 2593 ft | 0 kts | 144° |
| 2026-05-05 00:07 | -23.62319 | -46.65886 | 2600 ft | 85 kts | 147° |
| 2026-05-05 00:07 | -23.63034 | -46.65391 | 2610 ft | 156 kts | 147° |
| 2026-05-05 00:07 | -23.64048 | -46.64687 | 3172 ft | 177 kts | 147° |
| 2026-05-05 00:08 | -23.65105 | -46.63981 | 4162 ft | 183 kts | 153° |
| 2026-05-05 00:08 | -23.66234 | -46.63152 | 4601 ft | 213 kts | 127° |
| 2026-05-05 00:08 | -23.66811 | -46.61589 | 4845 ft | 236 kts | 104° |
| 2026-05-05 00:08 | -23.67321 | -46.59793 | 5178 ft | 256 kts | 109° |
| 2026-05-05 00:09 | -23.68002 | -46.57910 | 5536 ft | 279 kts | 114° |
| 2026-05-05 00:09 | -23.68833 | -46.55988 | 6407 ft | 280 kts | 117° |
| 2026-05-05 00:09 | -23.69727 | -46.54085 | 7251 ft | 283 kts | 119° |
| 2026-05-05 00:09 | -23.70648 | -46.52192 | 8133 ft | 283 kts | 120° |
| 2026-05-05 00:10 | -23.71570 | -46.50281 | 8998 ft | 285 kts | 115° |
| 2026-05-05 00:10 | -23.71940 | -46.48159 | 9802 ft | 290 kts | 87° |
| 2026-05-05 00:10 | -23.71702 | -46.45968 | 10618 ft | 292 kts | 82° |
| 2026-05-05 00:10 | -23.71379 | -46.43762 | 11096 ft | 308 kts | 81° |
| 2026-05-05 00:11 | -23.71012 | -46.41353 | 11270 ft | 334 kts | 81° |
| 2026-05-05 00:11 | -23.70621 | -46.38762 | 11506 ft | 356 kts | 81° |
| 2026-05-05 00:11 | -23.70221 | -46.36059 | 12047 ft | 365 kts | 81° |
| 2026-05-05 00:11 | -23.69821 | -46.33304 | 12744 ft | 369 kts | 82° |
| 2026-05-05 00:12 | -23.69420 | -46.30520 | 13455 ft | 374 kts | 82° |
| 2026-05-05 00:12 | -23.69016 | -46.27699 | 14114 ft | 379 kts | 82° |
| 2026-05-05 00:12 | -23.68608 | -46.24846 | 14738 ft | 383 kts | 82° |
| 2026-05-05 00:12 | -23.68197 | -46.21964 | 15374 ft | 386 kts | 82° |
| 2026-05-05 00:13 | -23.67779 | -46.19055 | 15989 ft | 390 kts | 82° |
| 2026-05-05 00:13 | -23.67308 | -46.16116 | 16594 ft | 395 kts | 75° |
| 2026-05-05 00:13 | -23.66118 | -46.13405 | 17127 ft | 400 kts | 52° |
| 2026-05-05 00:13 | -23.64143 | -46.11287 | 17748 ft | 400 kts | 32° |
| 2026-05-05 00:14 | -23.61712 | -46.09825 | 18370 ft | 401 kts | 24° |
| 2026-05-05 00:14 | -23.59189 | -46.08495 | 18876 ft | 405 kts | 23° |
| 2026-05-05 00:14 | -23.56676 | -46.07153 | 19360 ft | 409 kts | 24° |
| 2026-05-05 00:14 | -23.54121 | -46.05754 | 19867 ft | 413 kts | 25° |
| 2026-05-05 00:15 | -23.51546 | -46.04323 | 20382 ft | 416 kts | 25° |
| 2026-05-05 00:15 | -23.48959 | -46.02882 | 20878 ft | 420 kts | 25° |
| 2026-05-05 00:15 | -23.46340 | -46.01427 | 21387 ft | 423 kts | 25° |
| 2026-05-05 00:15 | -23.43678 | -46.00031 | 21856 ft | 425 kts | 18° |
| 2026-05-05 00:16 | -23.40800 | -45.99407 | 22213 ft | 422 kts | 359° |
| 2026-05-05 00:16 | -23.37847 | -45.99327 | 22183 ft | 424 kts | 357° |
| 2026-05-05 00:16 | -23.34903 | -45.99294 | 22187 ft | 421 kts | 357° |
| 2026-05-05 00:16 | -23.31980 | -45.99238 | 22190 ft | 418 kts | 358° |
| 2026-05-05 00:17 | -23.29063 | -45.99151 | 22198 ft | 419 kts | 358° |
| 2026-05-05 00:17 | -23.26145 | -45.99049 | 22205 ft | 420 kts | 358° |
| 2026-05-05 00:17 | -23.24199 | -45.98978 | 22269 ft | 425 kts | 358° |
| 2026-05-05 00:17 | -23.20223 | -45.98837 | 22916 ft | 427 kts | 358° |
| 2026-05-05 00:18 | -23.17283 | -45.98733 | 23500 ft | 428 kts | 358° |
| 2026-05-05 00:18 | -23.14299 | -45.98629 | 23934 ft | 431 kts | 358° |
| 2026-05-05 00:18 | -23.12268 | -45.98558 | 24178 ft | 434 kts | 358° |
| 2026-05-05 00:18 | -23.08251 | -45.98418 | 24674 ft | 437 kts | 358° |
| 2026-05-05 00:19 | -23.06230 | -45.98347 | 24935 ft | 439 kts | 358° |
| 2026-05-05 00:19 | -23.03171 | -45.98240 | 25352 ft | 441 kts | 358° |
| 2026-05-05 00:19 | -23.00094 | -45.98133 | 25739 ft | 444 kts | 358° |
| 2026-05-05 00:19 | -22.97048 | -45.98027 | 26106 ft | 446 kts | 357° |
| 2026-05-05 00:20 | -22.93934 | -45.97918 | 26471 ft | 449 kts | 357° |
| 2026-05-05 00:20 | -22.90800 | -45.97808 | 26844 ft | 452 kts | 357° |
| 2026-05-05 00:20 | -22.87643 | -45.97607 | 27183 ft | 458 kts | 4° |
| 2026-05-05 00:20 | -22.84493 | -45.96935 | 27513 ft | 464 kts | 9° |
| 2026-05-05 00:21 | -22.81338 | -45.96081 | 27853 ft | 468 kts | 10° |
| 2026-05-05 00:21 | -22.78176 | -45.95177 | 28201 ft | 470 kts | 10° |
| 2026-05-05 00:21 | -22.74997 | -45.94278 | 28529 ft | 473 kts | 10° |
| 2026-05-05 00:21 | -22.71801 | -45.93402 | 28841 ft | 475 kts | 9° |
| 2026-05-05 00:22 | -22.68585 | -45.92546 | 29162 ft | 477 kts | 9° |
| 2026-05-05 00:22 | -22.65352 | -45.91704 | 29526 ft | 478 kts | 8° |
| 2026-05-05 00:22 | -22.62157 | -45.90880 | 30008 ft | 476 kts | 8° |
| 2026-05-05 00:22 | -22.58941 | -45.90054 | 30436 ft | 475 kts | 8° |
| 2026-05-05 00:23 | -22.55711 | -45.89225 | 30663 ft | 478 kts | 8° |
| 2026-05-05 00:23 | -22.52476 | -45.88394 | 30977 ft | 477 kts | 8° |
| 2026-05-05 00:23 | -22.49249 | -45.87566 | 31406 ft | 475 kts | 8° |
| 2026-05-05 00:23 | -22.46033 | -45.86740 | 31820 ft | 473 kts | 8° |
| 2026-05-05 00:24 | -22.42832 | -45.85918 | 32184 ft | 473 kts | 8° |
| 2026-05-05 00:24 | -22.39632 | -45.85097 | 32516 ft | 473 kts | 8° |
| 2026-05-05 00:24 | -22.36433 | -45.84275 | 32887 ft | 472 kts | 8° |
| 2026-05-05 00:24 | -22.33284 | -45.83467 | 33224 ft | 471 kts | 7° |
| 2026-05-05 00:25 | -22.30065 | -45.82627 | 33216 ft | 478 kts | 11° |
| 2026-05-05 00:25 | -22.26987 | -45.81187 | 33218 ft | 489 kts | 30° |
| 2026-05-05 00:25 | -22.24278 | -45.78965 | 33249 ft | 488 kts | 35° |
| 2026-05-05 00:26 | -22.19048 | -45.74323 | 33238 ft | 486 kts | 36° |
| 2026-05-05 00:26 | -22.13819 | -45.69699 | 33234 ft | 486 kts | 35° |
| 2026-05-05 00:27 | -22.08584 | -45.65149 | 33224 ft | 486 kts | 35° |
| 2026-05-05 00:27 | -22.03302 | -45.60599 | 33206 ft | 486 kts | 35° |
| 2026-05-05 00:28 | -21.98027 | -45.56062 | 33213 ft | 486 kts | 35° |
| 2026-05-05 00:28 | -21.92734 | -45.51511 | 33217 ft | 487 kts | 34° |
| 2026-05-05 00:29 | -21.87433 | -45.46956 | 33215 ft | 487 kts | 34° |
| 2026-05-05 00:29 | -21.82139 | -45.42411 | 33235 ft | 487 kts | 35° |
| 2026-05-05 00:30 | -21.76840 | -45.37865 | 33228 ft | 488 kts | 34° |
| 2026-05-05 00:30 | -21.71527 | -45.33312 | 33212 ft | 488 kts | 34° |
| 2026-05-05 00:31 | -21.66247 | -45.28793 | 33233 ft | 488 kts | 34° |
| 2026-05-05 00:31 | -21.60938 | -45.24253 | 33235 ft | 488 kts | 34° |
| 2026-05-05 00:32 | -21.55621 | -45.19709 | 33221 ft | 488 kts | 34° |
| 2026-05-05 00:32 | -21.50308 | -45.15174 | 33233 ft | 488 kts | 34° |
| 2026-05-05 00:33 | -21.44982 | -45.10632 | 33230 ft | 488 kts | 34° |
| 2026-05-05 00:33 | -21.39666 | -45.06103 | 33230 ft | 488 kts | 34° |
| 2026-05-05 00:34 | -21.34433 | -45.01643 | 33110 ft | 470 kts | 34° |
| 2026-05-05 00:34 | -21.32020 | -44.99588 | 32784 ft | 464 kts | 34° |
| 2026-05-05 00:34 | -21.29502 | -44.97448 | 32436 ft | 460 kts | 34° |
| 2026-05-05 00:34 | -21.27000 | -44.95324 | 32053 ft | 457 kts | 34° |
| 2026-05-05 00:35 | -21.24541 | -44.93237 | 31686 ft | 454 kts | 34° |
| 2026-05-05 00:35 | -21.22074 | -44.91142 | 31326 ft | 451 kts | 34° |
| 2026-05-05 00:35 | -21.19619 | -44.89059 | 30951 ft | 449 kts | 34° |
| 2026-05-05 00:35 | -21.17175 | -44.86986 | 30530 ft | 447 kts | 34° |
| 2026-05-05 00:36 | -21.14744 | -44.84925 | 30148 ft | 445 kts | 34° |
| 2026-05-05 00:36 | -21.12320 | -44.82871 | 29728 ft | 442 kts | 34° |
| 2026-05-05 00:36 | -21.09917 | -44.80834 | 29326 ft | 439 kts | 34° |
| 2026-05-05 00:36 | -21.07532 | -44.78813 | 28934 ft | 435 kts | 34° |
| 2026-05-05 00:37 | -21.05160 | -44.76805 | 28549 ft | 432 kts | 34° |
| 2026-05-05 00:37 | -21.02788 | -44.74883 | 28173 ft | 427 kts | 31° |
| 2026-05-05 00:37 | -21.00370 | -44.73040 | 27798 ft | 423 kts | 31° |
| 2026-05-05 00:37 | -20.97973 | -44.71247 | 27430 ft | 420 kts | 31° |
| 2026-05-05 00:38 | -20.95614 | -44.69479 | 27058 ft | 418 kts | 31° |
| 2026-05-05 00:38 | -20.93248 | -44.67694 | 26696 ft | 415 kts | 31° |
| 2026-05-05 00:38 | -20.90903 | -44.65913 | 26334 ft | 412 kts | 31° |
| 2026-05-05 00:38 | -20.88569 | -44.64134 | 25964 ft | 410 kts | 32° |
| 2026-05-05 00:39 | -20.86254 | -44.62367 | 25602 ft | 407 kts | 32° |
| 2026-05-05 00:39 | -20.83952 | -44.60609 | 25251 ft | 405 kts | 32° |
| 2026-05-05 00:39 | -20.81663 | -44.58865 | 24877 ft | 403 kts | 32° |
| 2026-05-05 00:39 | -20.79344 | -44.57208 | 24497 ft | 398 kts | 23° |
| 2026-05-05 00:40 | -20.76767 | -44.56282 | 24164 ft | 387 kts | 9° |
| 2026-05-05 00:40 | -20.74157 | -44.55614 | 23792 ft | 385 kts | 9° |
| 2026-05-05 00:40 | -20.71558 | -44.54945 | 23386 ft | 383 kts | 9° |
| 2026-05-05 00:40 | -20.68980 | -44.54270 | 22998 ft | 380 kts | 10° |
| 2026-05-05 00:41 | -20.66416 | -44.53588 | 22633 ft | 377 kts | 10° |
| 2026-05-05 00:41 | -20.63886 | -44.52909 | 22285 ft | 374 kts | 11° |
| 2026-05-05 00:41 | -20.61370 | -44.52229 | 21928 ft | 371 kts | 11° |
| 2026-05-05 00:41 | -20.58873 | -44.51552 | 21579 ft | 368 kts | 11° |
| 2026-05-05 00:42 | -20.56433 | -44.50891 | 21237 ft | 365 kts | 11° |
| 2026-05-05 00:42 | -20.53980 | -44.50226 | 20898 ft | 362 kts | 11° |
| 2026-05-05 00:42 | -20.51545 | -44.49566 | 20551 ft | 360 kts | 11° |
| 2026-05-05 00:42 | -20.49118 | -44.48908 | 20226 ft | 357 kts | 11° |
| 2026-05-05 00:43 | -20.46717 | -44.48258 | 19897 ft | 355 kts | 11° |
| 2026-05-05 00:43 | -20.44329 | -44.47612 | 19550 ft | 353 kts | 11° |
| 2026-05-05 00:43 | -20.41952 | -44.46968 | 19225 ft | 351 kts | 11° |
| 2026-05-05 00:43 | -20.39621 | -44.46338 | 18894 ft | 350 kts | 12° |
| 2026-05-05 00:44 | -20.37263 | -44.45701 | 18548 ft | 349 kts | 12° |
| 2026-05-05 00:44 | -20.34918 | -44.45065 | 18181 ft | 347 kts | 12° |
| 2026-05-05 00:44 | -20.32585 | -44.44430 | 17816 ft | 345 kts | 12° |
| 2026-05-05 00:44 | -20.30267 | -44.43799 | 17479 ft | 342 kts | 12° |
| 2026-05-05 00:45 | -20.27968 | -44.43173 | 17145 ft | 340 kts | 12° |
| 2026-05-05 00:45 | -20.25681 | -44.42551 | 16808 ft | 337 kts | 13° |
| 2026-05-05 00:45 | -20.23414 | -44.41935 | 16479 ft | 335 kts | 13° |
| 2026-05-05 00:45 | -20.21156 | -44.41321 | 16155 ft | 333 kts | 13° |
| 2026-05-05 00:46 | -20.18919 | -44.40713 | 15837 ft | 331 kts | 13° |
| 2026-05-05 00:46 | -20.16693 | -44.40108 | 15500 ft | 329 kts | 13° |
| 2026-05-05 00:46 | -20.14485 | -44.39509 | 15185 ft | 327 kts | 13° |
| 2026-05-05 00:46 | -20.12287 | -44.38912 | 14876 ft | 325 kts | 13° |
| 2026-05-05 00:47 | -20.10100 | -44.38318 | 14551 ft | 323 kts | 14° |
| 2026-05-05 00:47 | -20.07927 | -44.37728 | 14237 ft | 321 kts | 14° |
| 2026-05-05 00:47 | -20.05793 | -44.37150 | 13910 ft | 320 kts | 14° |
| 2026-05-05 00:47 | -20.03641 | -44.36567 | 13559 ft | 318 kts | 14° |
| 2026-05-05 00:48 | -20.01474 | -44.35981 | 13224 ft | 316 kts | 14° |
| 2026-05-05 00:48 | -19.99383 | -44.35415 | 12906 ft | 314 kts | 14° |
| 2026-05-05 00:48 | -19.97274 | -44.34845 | 12579 ft | 312 kts | 14° |
| 2026-05-05 00:48 | -19.95176 | -44.34278 | 12260 ft | 310 kts | 14° |
| 2026-05-05 00:49 | -19.93092 | -44.33714 | 11945 ft | 308 kts | 14° |
| 2026-05-05 00:49 | -19.91017 | -44.33154 | 11635 ft | 307 kts | 14° |
| 2026-05-05 00:49 | -19.88950 | -44.32595 | 11324 ft | 305 kts | 14° |
| 2026-05-05 00:49 | -19.86902 | -44.32042 | 11056 ft | 302 kts | 15° |
| 2026-05-05 00:50 | -19.84874 | -44.31494 | 10809 ft | 300 kts | 15° |
| 2026-05-05 00:50 | -19.82858 | -44.30950 | 10563 ft | 298 kts | 15° |
| 2026-05-05 00:50 | -19.80855 | -44.30409 | 10322 ft | 295 kts | 15° |
| 2026-05-05 00:50 | -19.78892 | -44.29880 | 10065 ft | 286 kts | 15° |
| 2026-05-05 00:51 | -19.76989 | -44.29365 | 9809 ft | 279 kts | 16° |
| 2026-05-05 00:51 | -19.75224 | -44.28577 | 9564 ft | 274 kts | 32° |
| 2026-05-05 00:51 | -19.73623 | -44.27521 | 9360 ft | 276 kts | 33° |
| 2026-05-05 00:51 | -19.71981 | -44.26445 | 9139 ft | 280 kts | 32° |
| 2026-05-05 00:52 | -19.70316 | -44.25376 | 8912 ft | 279 kts | 32° |
| 2026-05-05 00:52 | -19.68652 | -44.24324 | 8538 ft | 280 kts | 32° |
| 2026-05-05 00:52 | -19.66973 | -44.23269 | 8203 ft | 278 kts | 32° |
| 2026-05-05 00:52 | -19.65329 | -44.22239 | 7938 ft | 270 kts | 31° |
| 2026-05-05 00:53 | -19.63697 | -44.21317 | 7737 ft | 261 kts | 28° |
| 2026-05-05 00:53 | -19.62099 | -44.20473 | 7556 ft | 253 kts | 28° |
| 2026-05-05 00:53 | -19.60540 | -44.19648 | 7383 ft | 248 kts | 28° |
| 2026-05-05 00:53 | -19.59010 | -44.18833 | 7219 ft | 244 kts | 27° |
| 2026-05-05 00:54 | -19.57506 | -44.18028 | 7045 ft | 240 kts | 28° |
| 2026-05-05 00:54 | -19.56081 | -44.17140 | 6832 ft | 237 kts | 43° |
| 2026-05-05 00:54 | -19.54998 | -44.15842 | 6616 ft | 234 kts | 50° |
| 2026-05-05 00:54 | -19.53944 | -44.14533 | 6377 ft | 232 kts | 50° |
| 2026-05-05 00:55 | -19.52894 | -44.13253 | 6145 ft | 226 kts | 49° |
| 2026-05-05 00:55 | -19.51870 | -44.12015 | 5901 ft | 220 kts | 50° |
| 2026-05-05 00:55 | -19.51033 | -44.10712 | 5680 ft | 210 kts | 75° |
| 2026-05-05 00:55 | -19.51148 | -44.09291 | 5607 ft | 196 kts | 116° |
| 2026-05-05 00:56 | -19.51895 | -44.08109 | 5416 ft | 193 kts | 123° |
| 2026-05-05 00:56 | -19.52738 | -44.07009 | 5176 ft | 190 kts | 128° |
| 2026-05-05 00:56 | -19.53638 | -44.06006 | 5006 ft | 184 kts | 132° |
| 2026-05-05 00:56 | -19.54556 | -44.05113 | 4768 ft | 174 kts | 134° |
| 2026-05-05 00:57 | -19.55424 | -44.04302 | 4585 ft | 158 kts | 134° |
| 2026-05-05 00:57 | -19.56206 | -44.03573 | 4371 ft | 142 kts | 134° |
| 2026-05-05 00:57 | -19.56919 | -44.02907 | 4192 ft | 137 kts | 134° |
| 2026-05-05 00:57 | -19.57630 | -44.02242 | 4013 ft | 136 kts | 134° |
| 2026-05-05 00:58 | -19.58339 | -44.01579 | 3842 ft | 136 kts | 134° |
| 2026-05-05 00:58 | -19.59048 | -44.00917 | 3680 ft | 136 kts | 134° |
| 2026-05-05 00:58 | -19.59753 | -44.00259 | 3504 ft | 133 kts | 135° |
| 2026-05-05 00:58 | -19.60407 | -43.99648 | 3342 ft | 135 kts | 137° |
| 2026-05-05 00:59 | -19.61111 | -43.98993 | 3160 ft | 134 kts | 137° |
| 2026-05-05 00:59 | -19.61799 | -43.98350 | 2979 ft | 130 kts | 136° |
| 2026-05-05 00:59 | -19.62467 | -43.97711 | 2820 ft | 129 kts | 137° |
| 2026-05-05 00:59 | -19.63064 | -43.97149 | 2810 ft | 95 kts | 140° |
| 2026-05-05 01:00 | -19.63451 | -43.96796 | 2805 ft | 52 kts | 139° |
| 2026-05-05 01:00 | -19.63601 | -43.96551 | 2806 ft | 23 kts | 109° |
| 2026-05-05 01:00 | -19.63618 | -43.96499 | 2806 ft | 0 kts | 109° |
| 2026-05-05 01:02 | -19.63629 | -43.96464 | 2810 ft | 10 kts | 109° |
| 2026-05-05 01:02 | -19.63637 | -43.96394 | 2809 ft | 10 kts | 70° |
| 2026-05-05 01:02 | -19.63589 | -43.96347 | 2809 ft | 10 kts | 28° |
| 2026-05-05 01:03 | -19.63531 | -43.96314 | 2809 ft | 9 kts | 28° |
| 2026-05-05 01:03 | -19.63493 | -43.96292 | 2810 ft | 9 kts | 28° |
| 2026-05-05 01:03 | -19.63421 | -43.96306 | 2809 ft | 7 kts | 1° |
| 2026-05-05 01:03 | -19.63392 | -43.96291 | 2809 ft | 0 kts | 27° |